This is the latest recevied weather packets stored in our database for station/object IZ1DME-3. If no packets are shown the sender has not sent any weather packets the latest 10 day(s).
| Time | Temp. | Humidity | Pressure | Rain* | Wind** | Luminosity | Snow |
|---|---|---|---|---|---|---|---|
| 1777281276 | 18.89° C | 58% | 1020.3 hPa | - | - | - | - |
| 1777279775 | 18.33° C | 59% | 1020.6 hPa | - | - | - | - |
| 1777278275 | 17.78° C | 60% | 1020.7 hPa | - | - | - | - |
| 1777276775 | 17.22° C | 64% | 1020.7 hPa | - | - | - | - |
| 1777275275 | 17.22° C | 63% | 1020.9 hPa | - | - | - | - |
| 1777273775 | 16.11° C | 67% | 1021 hPa | - | - | - | - |
| 1777272275 | 15.56° C | 70% | 1021.2 hPa | - | - | - | - |
| 1777270775 | 15° C | 74% | 1021.3 hPa | - | - | - | - |
| 1777269275 | 14.44° C | 76% | 1021.3 hPa | - | - | - | - |
| 1777267775 | 13.33° C | 75% | 1021.2 hPa | - | - | - | - |
| 1777266275 | 13.33° C | 75% | 1021 hPa | - | - | - | - |
| 1777264775 | 13.33° C | 74% | 1020.8 hPa | - | - | - | - |
| 1777263275 | 13.33° C | 73% | 1020.7 hPa | - | - | - | - |
| 1777261775 | 13.33° C | 74% | 1020.6 hPa | - | - | - | - |
| 1777260275 | 13.33° C | 72% | 1020.5 hPa | - | - | - | - |
| 1777258775 | 13.89° C | 71% | 1020.5 hPa | - | - | - | - |
| 1777257276 | 13.89° C | 70% | 1020.3 hPa | - | - | - | - |
| 1777255776 | 14.44° C | 69% | 1020.2 hPa | - | - | - | - |
| 1777254275 | 14.44° C | 69% | 1020.2 hPa | - | - | - | - |
| 1777252775 | 14.44° C | 70% | 1020.1 hPa | - | - | - | - |
| 1777251275 | 14.44° C | 69% | 1020.3 hPa | - | - | - | - |
| 1777249775 | 15° C | 67% | 1020.4 hPa | - | - | - | - |
| 1777248275 | 15.56° C | 69% | 1020.4 hPa | - | - | - | - |
| 1777246776 | 15° C | 72% | 1020.5 hPa | - | - | - | - |
| 1777245275 | 15° C | 71% | 1020.5 hPa | - | - | - | - |
* Rain since midnight (hover to see other rain measurements)
** Current wind speed in m/s (hover to see current wind gust speed)